createdAt,value
2018-02-11T00:02:05.502Z,1.63
2018-02-11T00:04:32.009Z,1.40
2018-02-11T00:06:58.594Z,1.30
2018-02-11T00:09:25.207Z,1.30
2018-02-11T00:11:51.860Z,1.97
2018-02-11T00:14:18.352Z,1.33
2018-02-11T00:16:44.912Z,1.67
2018-02-11T00:19:11.591Z,1.23
2018-02-11T00:21:39.071Z,1.50
2018-02-11T00:24:05.613Z,2.30
2018-02-11T00:26:32.053Z,1.70
2018-02-11T00:28:58.506Z,2.43
2018-02-11T00:31:25.066Z,3.73
2018-02-11T00:33:51.534Z,1.87
2018-02-11T00:36:18.260Z,2.20
2018-02-11T00:38:44.885Z,1.67
2018-02-11T00:41:11.411Z,2.43
2018-02-11T00:43:37.996Z,2.00
2018-02-11T00:46:04.573Z,2.33
2018-02-11T00:48:31.302Z,1.77
2018-02-11T00:50:57.793Z,2.07
2018-02-11T00:53:24.298Z,2.17
2018-02-11T00:55:50.780Z,2.20
2018-02-11T00:58:17.266Z,2.30
2018-02-11T01:00:43.718Z,2.00
2018-02-11T01:03:10.207Z,2.70
2018-02-11T01:05:36.644Z,2.20
2018-02-11T01:08:03.191Z,2.10
2018-02-11T01:10:29.720Z,1.80
2018-02-11T01:12:56.239Z,4.27
2018-02-11T01:15:22.648Z,2.77
2018-02-11T01:17:49.106Z,2.10
2018-02-11T01:20:15.521Z,1.70
2018-02-11T01:22:42.014Z,2.33
2018-02-11T01:25:08.588Z,2.60
2018-02-11T01:27:35.053Z,2.37
2018-02-11T01:30:01.493Z,1.90
2018-02-11T01:32:28.062Z,2.27
2018-02-11T01:34:54.485Z,2.03
2018-02-11T01:37:20.958Z,2.23
2018-02-11T01:39:47.466Z,2.33
2018-02-11T01:42:13.938Z,1.67
2018-02-11T01:44:40.337Z,1.60
2018-02-11T01:47:06.878Z,2.47
2018-02-11T01:49:33.338Z,2.23
2018-02-11T01:51:59.845Z,2.70
2018-02-11T01:54:26.331Z,1.50
2018-02-11T01:56:52.804Z,2.23
2018-02-11T01:59:19.311Z,1.77
2018-02-11T02:01:45.887Z,2.10
2018-02-11T02:04:12.414Z,1.87
2018-02-11T02:06:38.842Z,2.17
2018-02-11T02:09:05.284Z,1.60
2018-02-11T02:11:31.685Z,1.87
2018-02-11T02:13:58.061Z,2.10
2018-02-11T02:16:24.581Z,1.50
2018-02-11T02:18:50.978Z,2.03
2018-02-11T02:21:17.361Z,2.10
2018-02-11T02:23:43.894Z,1.80
2018-02-11T02:26:10.360Z,2.00
2018-02-11T02:28:36.772Z,2.77
2018-02-11T02:31:03.235Z,1.90
2018-02-11T02:33:29.661Z,2.37
2018-02-11T02:35:56.184Z,1.70
2018-02-11T02:38:22.592Z,1.50
2018-02-11T02:40:48.992Z,2.07
2018-02-11T02:43:15.522Z,1.87
2018-02-11T02:45:41.920Z,1.67
2018-02-11T02:48:08.363Z,1.80
2018-02-11T02:50:34.727Z,1.43
2018-02-11T02:53:01.348Z,2.00
2018-02-11T02:55:27.808Z,2.93
2018-02-11T02:57:54.267Z,1.70
2018-02-11T03:00:21.028Z,1.90
2018-02-11T03:02:47.466Z,2.00
2018-02-11T03:05:13.841Z,1.80
2018-02-11T03:07:40.253Z,2.30
2018-02-11T03:10:06.644Z,1.67
2018-02-11T03:12:33.091Z,1.80
2018-02-11T03:14:59.518Z,1.57
2018-02-11T03:17:26.143Z,1.90
2018-02-11T03:19:52.662Z,1.70
2018-02-11T03:22:19.181Z,1.50
2018-02-11T03:24:45.612Z,1.93
2018-02-11T03:27:12.005Z,2.50
2018-02-11T03:29:38.490Z,1.30
2018-02-11T03:32:04.966Z,1.40
2018-02-11T03:34:31.353Z,1.83
2018-02-11T03:36:57.793Z,1.53
2018-02-11T03:39:24.286Z,1.90
2018-02-11T03:41:50.682Z,1.37
2018-02-11T03:44:17.086Z,2.70
2018-02-11T03:46:43.500Z,1.53
2018-02-11T03:49:09.904Z,2.97
2018-02-11T03:51:36.325Z,1.90
2018-02-11T03:54:02.763Z,2.17
2018-02-11T03:56:29.182Z,2.03
2018-02-11T03:58:55.617Z,1.93
2018-02-11T04:01:22.026Z,1.60
2018-02-11T04:03:48.495Z,1.60
2018-02-11T04:06:15.032Z,2.53
2018-02-11T04:08:41.437Z,1.40
2018-02-11T04:11:07.839Z,2.70
2018-02-11T04:13:34.345Z,2.60
2018-02-11T04:16:00.731Z,1.70
2018-02-11T04:18:27.156Z,1.53
2018-02-11T04:20:53.569Z,1.67
2018-02-11T04:23:19.956Z,1.67
2018-02-11T04:25:46.316Z,1.57
2018-02-11T04:28:12.713Z,1.70
2018-02-11T04:30:39.130Z,1.87
2018-02-11T04:33:05.590Z,3.93
2018-02-11T04:35:32.039Z,1.50
2018-02-11T04:37:58.401Z,1.67
2018-02-11T04:40:24.799Z,1.87
2018-02-11T04:42:51.239Z,1.70
2018-02-11T04:45:17.676Z,2.00
2018-02-11T04:47:44.060Z,1.87
2018-02-11T04:50:10.455Z,2.13
2018-02-11T04:52:36.949Z,1.47
2018-02-11T04:55:03.389Z,1.90
2018-02-11T04:57:29.792Z,2.10
2018-02-11T04:59:56.208Z,1.63
2018-02-11T05:02:22.790Z,1.93
2018-02-11T05:04:49.185Z,1.60
2018-02-11T05:07:15.598Z,2.60
2018-02-11T05:09:42.061Z,1.60
2018-02-11T05:12:08.579Z,1.33
2018-02-11T05:14:35.026Z,1.77
2018-02-11T05:17:01.441Z,1.93
2018-02-11T05:19:27.847Z,1.53
2018-02-11T05:21:54.187Z,1.80
2018-02-11T05:24:21.143Z,2.40
2018-02-11T05:26:47.609Z,1.80
2018-02-11T05:29:14.005Z,1.93
2018-02-11T05:31:40.472Z,1.30
2018-02-11T05:34:07.078Z,1.60
2018-02-11T05:36:33.574Z,1.83
2018-02-11T05:38:59.972Z,2.93
2018-02-11T05:41:26.388Z,1.83
2018-02-11T05:43:52.871Z,2.50
2018-02-11T05:46:19.289Z,1.50
2018-02-11T05:48:45.702Z,1.63
2018-02-11T05:51:12.079Z,1.70
2018-02-11T05:53:38.556Z,1.53
2018-02-11T05:56:05.011Z,1.67
2018-02-11T05:58:31.668Z,2.77
2018-02-11T06:00:58.125Z,5.03
2018-02-11T06:03:24.694Z,3.70
2018-02-11T06:05:51.468Z,1.97
2018-02-11T06:08:18.321Z,1.43
2018-02-11T06:10:44.870Z,2.50
2018-02-11T06:13:11.456Z,2.53
2018-02-11T06:15:37.934Z,1.23
2018-02-11T06:18:04.377Z,3.40
2018-02-11T06:20:30.895Z,1.37
2018-02-11T06:22:58.386Z,1.20
2018-02-11T06:25:24.840Z,2.33
2018-02-11T06:27:51.332Z,1.40
2018-02-11T06:30:17.880Z,2.03
2018-02-11T06:32:44.437Z,1.70
2018-02-11T06:35:10.968Z,1.33
2018-02-11T06:37:37.441Z,1.40
2018-02-11T06:40:04.127Z,1.30
2018-02-11T06:42:30.636Z,1.40
2018-02-11T06:44:57.128Z,1.67
2018-02-11T06:47:23.658Z,1.50
2018-02-11T06:49:50.253Z,1.43
2018-02-11T06:52:16.774Z,2.40
2018-02-11T06:54:43.630Z,1.97
2018-02-11T06:57:11.175Z,1.80
2018-02-11T06:59:38.391Z,2.37
2018-02-11T07:02:05.744Z,1.70
2018-02-11T07:04:32.505Z,1.80
2018-02-11T07:06:59.099Z,1.40
2018-02-11T07:09:25.554Z,1.40
2018-02-11T07:11:52.101Z,1.60
2018-02-11T07:14:18.735Z,1.07
2018-02-11T07:16:45.184Z,1.60
2018-02-11T07:19:11.736Z,1.97
2018-02-11T07:21:38.161Z,1.20
2018-02-11T07:24:04.864Z,3.27
2018-02-11T07:26:31.471Z,1.63
2018-02-11T07:28:57.943Z,1.90
2018-02-11T07:31:24.836Z,1.80
2018-02-11T07:33:51.331Z,1.10
2018-02-11T07:36:17.749Z,2.90
2018-02-11T07:38:45.226Z,4.20
2018-02-11T07:41:12.801Z,1.37
2018-02-11T07:43:39.548Z,2.10
2018-02-11T07:46:06.023Z,2.03
2018-02-11T07:48:32.568Z,1.43
2018-02-11T07:51:00.115Z,2.13
2018-02-11T07:53:28.638Z,1.50
2018-02-11T07:55:56.775Z,1.20
2018-02-11T07:58:24.749Z,2.03
2018-02-11T08:00:52.213Z,2.37
2018-02-11T08:03:21.108Z,2.60
2018-02-11T08:05:48.888Z,3.40
2018-02-11T08:08:26.002Z,1.93
2018-02-11T08:10:54.482Z,2.13
2018-02-11T08:13:21.754Z,3.50
2018-02-11T08:15:49.279Z,1.40
2018-02-11T08:18:17.234Z,2.07
2018-02-11T08:20:44.318Z,2.27
2018-02-11T08:23:12.218Z,2.27
2018-02-11T08:25:40.229Z,3.27
2018-02-11T08:28:07.864Z,2.60
2018-02-11T08:30:35.454Z,2.37
2018-02-11T08:33:04.514Z,1.73
2018-02-11T08:35:31.599Z,2.43
2018-02-11T08:37:58.888Z,1.90
2018-02-11T08:40:26.414Z,2.37
2018-02-11T08:42:54.361Z,2.17
2018-02-11T08:45:21.621Z,2.27
2018-02-11T08:47:48.232Z,2.03
2018-02-11T08:50:15.056Z,2.53
2018-02-11T08:52:41.657Z,2.03
2018-02-11T08:55:08.558Z,2.87
2018-02-11T08:57:35.680Z,2.40
2018-02-11T09:00:03.175Z,3.33
2018-02-11T09:02:30.263Z,2.27
2018-02-11T09:04:56.916Z,2.27
2018-02-11T09:07:23.539Z,2.93
2018-02-11T09:09:50.397Z,2.03
2018-02-11T09:12:17.250Z,2.10
2018-02-11T09:14:44.336Z,3.90
2018-02-11T09:17:11.310Z,2.97
2018-02-11T09:19:38.155Z,2.00
2018-02-11T09:22:05.182Z,2.07
2018-02-11T09:24:32.057Z,1.63
2018-02-11T09:26:59.071Z,2.10
2018-02-11T09:29:25.866Z,1.80
2018-02-11T09:31:52.706Z,3.13
2018-02-11T09:34:19.324Z,1.60
2018-02-11T09:36:46.250Z,5.63
2018-02-11T09:39:13.305Z,2.70
2018-02-11T09:41:40.648Z,2.30
2018-02-11T09:44:07.734Z,1.50
2018-02-11T09:46:34.406Z,2.03
2018-02-11T09:49:01.129Z,2.77
2018-02-11T09:51:27.667Z,2.10
2018-02-11T09:53:54.538Z,2.63
2018-02-11T09:56:21.243Z,2.33
2018-02-11T09:58:48.047Z,2.47
2018-02-11T10:01:14.877Z,2.40
2018-02-11T10:03:41.876Z,2.70
2018-02-11T10:06:08.976Z,2.97
2018-02-11T10:08:36.044Z,2.97
2018-02-11T10:11:03.148Z,2.83
2018-02-11T10:13:30.201Z,3.57
2018-02-11T10:15:57.108Z,2.70
2018-02-11T10:18:24.088Z,2.40
2018-02-11T10:20:51.129Z,2.67
2018-02-11T10:23:17.972Z,2.20
2018-02-11T10:25:44.725Z,3.07
2018-02-11T10:28:11.374Z,2.87
2018-02-11T10:30:38.264Z,3.10
2018-02-11T10:33:08.197Z,1.83
2018-02-11T10:35:36.132Z,2.70
2018-02-11T10:38:02.953Z,3.63
2018-02-11T10:40:29.902Z,4.33
2018-02-11T10:42:56.774Z,4.20
2018-02-11T10:45:23.260Z,3.77
2018-02-11T10:47:50.102Z,3.77
2018-02-11T10:50:17.153Z,4.53
2018-02-11T10:52:44.469Z,4.10
2018-02-11T10:55:11.087Z,3.13
2018-02-11T10:57:37.769Z,3.20
2018-02-11T11:00:04.521Z,3.60
2018-02-11T11:02:31.184Z,4.47
2018-02-11T11:04:57.838Z,6.47
2018-02-11T11:07:24.451Z,3.20
2018-02-11T11:09:51.284Z,5.10
2018-02-11T11:12:18.674Z,3.57
2018-02-11T11:14:45.573Z,4.73
2018-02-11T11:17:12.285Z,4.33
2018-02-11T11:19:39.080Z,6.67
2018-02-11T11:22:06.031Z,3.87
2018-02-11T11:24:32.838Z,3.50
2018-02-11T11:27:00.036Z,3.43
2018-02-11T11:29:27.150Z,3.83
2018-02-11T11:31:54.446Z,4.33
2018-02-11T11:34:22.102Z,6.00
2018-02-11T11:36:49.059Z,6.53
2018-02-11T11:39:15.883Z,8.20
2018-02-11T11:41:42.801Z,4.37
2018-02-11T11:44:09.615Z,5.60
2018-02-11T11:46:36.977Z,4.43
2018-02-11T11:49:03.659Z,4.17
2018-02-11T11:51:30.442Z,5.97
2018-02-11T11:53:57.033Z,5.97
2018-02-11T11:56:23.797Z,5.60
2018-02-11T11:58:50.302Z,7.60
2018-02-11T12:01:17.335Z,6.03
2018-02-11T12:03:44.320Z,7.63
2018-02-11T12:06:10.968Z,6.50
2018-02-11T12:08:37.683Z,5.00
2018-02-11T12:11:04.294Z,6.13
2018-02-11T12:13:31.960Z,6.33
2018-02-11T12:15:58.548Z,5.23
2018-02-11T12:18:25.322Z,4.10
2018-02-11T12:20:52.335Z,5.00
2018-02-11T12:23:19.453Z,3.73
2018-02-11T12:25:46.833Z,5.10
2018-02-11T12:28:14.165Z,5.63
2018-02-11T12:30:41.003Z,5.40
2018-02-11T12:33:07.962Z,8.43
2018-02-11T12:35:34.948Z,6.70
2018-02-11T12:38:01.865Z,4.03
2018-02-11T12:40:28.790Z,4.77
2018-02-11T12:42:55.638Z,15.10
2018-02-11T12:45:22.736Z,15.43
2018-02-11T12:47:49.776Z,6.13
2018-02-11T12:50:16.835Z,7.30
2018-02-11T12:52:43.870Z,15.17
2018-02-11T12:55:10.613Z,5.23
2018-02-11T12:57:37.341Z,6.10
2018-02-11T13:00:04.566Z,7.13
2018-02-11T13:02:31.883Z,7.27
2018-02-11T13:04:58.992Z,8.90
2018-02-11T13:07:26.036Z,11.90
2018-02-11T13:09:52.823Z,6.83
2018-02-11T13:12:19.738Z,7.80
2018-02-11T13:14:46.769Z,9.87
2018-02-11T13:17:13.717Z,10.50
2018-02-11T13:19:40.588Z,8.30
2018-02-11T13:22:07.486Z,6.93
2018-02-11T13:24:34.660Z,5.90
2018-02-11T13:27:01.916Z,5.03
2018-02-11T13:29:28.835Z,5.60
2018-02-11T13:31:55.779Z,5.57
2018-02-11T13:34:22.909Z,5.80
2018-02-11T13:36:49.450Z,4.90
2018-02-11T13:39:17.340Z,5.70
2018-02-11T13:41:44.165Z,5.47
2018-02-11T13:44:11.989Z,5.00
2018-02-11T13:46:38.677Z,6.33
2018-02-11T13:49:05.726Z,6.70
2018-02-11T13:51:32.343Z,6.60
2018-02-11T13:53:59.055Z,5.77
2018-02-11T13:56:25.811Z,7.53
2018-02-11T13:58:53.016Z,8.03
2018-02-11T14:01:20.612Z,6.70
2018-02-11T14:03:48.573Z,6.83
2018-02-11T14:06:15.917Z,5.37
2018-02-11T14:08:43.150Z,7.80
2018-02-11T14:11:10.797Z,7.50
2018-02-11T14:13:37.991Z,4.97
2018-02-11T14:16:05.047Z,6.20
2018-02-11T14:18:34.449Z,6.27
2018-02-11T14:21:01.237Z,7.17
2018-02-11T14:23:29.060Z,6.13
2018-02-11T14:25:56.657Z,6.03
2018-02-11T14:28:23.900Z,7.53
2018-02-11T14:30:51.894Z,5.87
2018-02-11T14:33:20.491Z,5.17
2018-02-11T14:35:48.272Z,5.83
2018-02-11T14:38:16.575Z,5.93
2018-02-11T14:40:44.511Z,6.57
2018-02-11T14:43:12.372Z,6.27
2018-02-11T14:45:41.704Z,5.83
2018-02-11T14:48:10.759Z,7.70
2018-02-11T14:50:38.524Z,7.97
2018-02-11T14:53:10.838Z,11.57
2018-02-11T14:55:39.239Z,9.07
2018-02-11T14:58:07.387Z,6.70
2018-02-11T15:00:37.290Z,7.50
2018-02-11T15:03:06.794Z,9.43
2018-02-11T15:05:34.412Z,9.70
2018-02-11T15:08:02.105Z,12.33
2018-02-11T15:10:31.405Z,10.30
2018-02-11T15:13:00.286Z,10.60
2018-02-11T15:15:30.558Z,8.47
2018-02-11T15:17:58.269Z,7.23
2018-02-11T15:20:26.354Z,8.87
2018-02-11T15:22:53.888Z,7.57
2018-02-11T15:25:23.156Z,6.73
2018-02-11T15:27:50.552Z,7.10
2018-02-11T15:30:20.474Z,7.87
2018-02-11T15:32:48.256Z,7.73
2018-02-11T15:35:15.022Z,7.90
2018-02-11T15:37:41.543Z,8.30
2018-02-11T15:40:08.011Z,9.10
2018-02-11T15:42:34.937Z,7.23
2018-02-11T15:45:01.629Z,7.27
2018-02-11T15:47:28.177Z,6.73
2018-02-11T15:49:54.797Z,5.80
2018-02-11T15:52:21.464Z,7.33
2018-02-11T15:54:48.188Z,7.67
2018-02-11T15:57:15.017Z,7.73
2018-02-11T15:59:41.715Z,8.30
2018-02-11T16:02:08.196Z,5.73
2018-02-11T16:04:34.917Z,5.73
2018-02-11T16:07:03.109Z,5.00
2018-02-11T16:09:29.632Z,5.33
2018-02-11T16:11:56.220Z,5.87
2018-02-11T16:14:23.401Z,5.00
2018-02-11T16:16:50.252Z,4.97
2018-02-11T16:19:17.008Z,3.93
2018-02-11T16:21:43.716Z,5.23
2018-02-11T16:24:10.888Z,4.70
2018-02-11T16:26:37.619Z,5.30
2018-02-11T16:29:04.510Z,5.63
2018-02-11T16:31:31.602Z,4.57
2018-02-11T16:33:58.173Z,4.73
2018-02-11T16:36:24.793Z,5.30
2018-02-11T16:38:51.560Z,3.90
2018-02-11T16:41:18.107Z,4.70
2018-02-11T16:43:44.750Z,4.00
2018-02-11T16:46:11.536Z,3.73
2018-02-11T16:48:38.115Z,4.83
2018-02-11T16:51:04.781Z,4.53
2018-02-11T16:53:31.325Z,5.47
2018-02-11T16:55:57.781Z,5.20
2018-02-11T16:58:24.437Z,5.37
2018-02-11T17:00:51.195Z,7.83
2018-02-11T17:03:18.092Z,5.20
2018-02-11T17:05:44.835Z,6.17
2018-02-11T17:08:11.644Z,5.70
2018-02-11T17:10:38.309Z,5.97
2018-02-11T17:13:04.832Z,7.53
2018-02-11T17:15:31.401Z,5.27
2018-02-11T17:17:57.983Z,5.47
2018-02-11T17:20:25.125Z,5.17
2018-02-11T17:22:52.636Z,5.23
2018-02-11T17:25:19.960Z,5.30
2018-02-11T17:27:47.336Z,7.10
2018-02-11T17:30:14.638Z,9.60
2018-02-11T17:32:41.331Z,5.97
2018-02-11T17:35:09.234Z,8.20
2018-02-11T17:37:36.537Z,5.10
2018-02-11T17:40:03.609Z,6.90
2018-02-11T17:42:30.186Z,6.07
2018-02-11T17:44:56.883Z,5.57
2018-02-11T17:47:26.938Z,7.27
2018-02-11T17:49:54.401Z,6.87
2018-02-11T17:52:20.922Z,7.73
2018-02-11T17:54:47.920Z,6.63
2018-02-11T17:57:14.712Z,9.77
2018-02-11T17:59:41.288Z,6.43
2018-02-11T18:02:07.934Z,6.87
2018-02-11T18:04:34.919Z,7.53
2018-02-11T18:07:01.414Z,7.70
2018-02-11T18:09:27.997Z,4.93
2018-02-11T18:11:54.533Z,9.23
2018-02-11T18:14:21.323Z,8.90
2018-02-11T18:16:48.705Z,8.00
2018-02-11T18:19:15.255Z,6.60
2018-02-11T18:21:42.741Z,8.80
2018-02-11T18:24:09.355Z,6.10
2018-02-11T18:26:36.118Z,5.67
2018-02-11T18:29:02.814Z,7.83
2018-02-11T18:31:29.324Z,6.00
2018-02-11T18:33:55.925Z,9.37
2018-02-11T18:36:22.575Z,6.63
2018-02-11T18:38:50.026Z,6.90
2018-02-11T18:41:16.524Z,6.67
2018-02-11T18:43:43.263Z,7.27
2018-02-11T18:46:09.806Z,6.60
2018-02-11T18:48:36.367Z,8.20
2018-02-11T18:51:02.825Z,6.53
2018-02-11T18:53:29.405Z,8.77
2018-02-11T18:55:55.875Z,8.30
2018-02-11T18:58:22.368Z,8.27
2018-02-11T19:00:48.830Z,6.47
2018-02-11T19:03:15.518Z,7.77
2018-02-11T19:05:42.378Z,7.13
2018-02-11T19:08:09.212Z,6.93
2018-02-11T19:10:35.920Z,6.80
2018-02-11T19:13:02.472Z,7.93
2018-02-11T19:15:28.953Z,7.10
2018-02-11T19:17:55.598Z,10.03
2018-02-11T19:20:22.033Z,6.70
2018-02-11T19:22:49.110Z,7.27
2018-02-11T19:25:15.847Z,8.20
2018-02-11T19:27:42.389Z,6.23
2018-02-11T19:30:09.894Z,7.13
2018-02-11T19:32:36.635Z,8.47
2018-02-11T19:35:03.109Z,6.60
2018-02-11T19:37:29.605Z,7.73
2018-02-11T19:39:56.302Z,8.70
2018-02-11T19:42:22.830Z,8.70
2018-02-11T19:44:49.426Z,7.23
2018-02-11T19:47:15.902Z,7.83
2018-02-11T19:49:42.386Z,9.23
2018-02-11T19:52:08.860Z,8.03
2018-02-11T19:54:35.372Z,6.03
2018-02-11T19:57:01.898Z,6.83
2018-02-11T19:59:28.416Z,7.20
2018-02-11T20:01:55.017Z,7.20
2018-02-11T20:04:21.578Z,6.67
2018-02-11T20:06:48.316Z,6.63
2018-02-11T20:09:15.331Z,7.40
2018-02-11T20:11:42.319Z,8.47
2018-02-11T20:14:08.857Z,8.27
2018-02-11T20:16:35.350Z,8.43
2018-02-11T20:19:01.827Z,6.93
2018-02-11T20:21:28.299Z,7.27
2018-02-11T20:23:55.026Z,8.17
2018-02-11T20:26:21.639Z,9.00
2018-02-11T20:28:48.090Z,7.17
2018-02-11T20:31:14.572Z,7.47
2018-02-11T20:33:41.276Z,7.40
2018-02-11T20:36:07.840Z,8.60
2018-02-11T20:38:34.466Z,8.97
2018-02-11T20:41:01.422Z,7.63
2018-02-11T20:43:28.011Z,9.00
2018-02-11T20:45:54.617Z,9.47
2018-02-11T20:48:21.185Z,7.13
2018-02-11T20:50:47.994Z,7.57
2018-02-11T20:53:14.843Z,6.97
2018-02-11T20:55:41.597Z,9.47
2018-02-11T20:58:08.224Z,9.97
2018-02-11T21:00:34.763Z,7.83
2018-02-11T21:03:01.302Z,8.13
2018-02-11T21:05:28.009Z,9.13
2018-02-11T21:07:54.563Z,8.23
2018-02-11T21:10:21.018Z,8.70
2018-02-11T21:12:47.522Z,8.00
2018-02-11T21:15:14.173Z,8.20
2018-02-11T21:17:40.643Z,9.03
2018-02-11T21:20:07.251Z,8.63
2018-02-11T21:22:33.907Z,8.37
2018-02-11T21:25:00.606Z,6.43
2018-02-11T21:27:27.028Z,8.60
2018-02-11T21:29:53.502Z,9.23
2018-02-11T21:32:19.945Z,8.93
2018-02-11T21:34:46.449Z,9.33
2018-02-11T21:37:12.883Z,8.43
2018-02-11T21:39:39.272Z,7.43
2018-02-11T21:42:05.778Z,9.83
2018-02-11T21:44:32.329Z,8.83
2018-02-11T21:46:58.739Z,7.17
2018-02-11T21:49:25.211Z,7.80
2018-02-11T21:51:51.721Z,8.80
2018-02-11T21:54:18.239Z,8.63
2018-02-11T21:56:44.727Z,8.60
2018-02-11T21:59:11.189Z,7.50
2018-02-11T22:01:37.632Z,8.60
2018-02-11T22:04:04.096Z,7.97
2018-02-11T22:06:30.524Z,7.67
2018-02-11T22:08:56.930Z,8.70
2018-02-11T22:11:23.331Z,6.37
2018-02-11T22:13:50.819Z,8.03
2018-02-11T22:16:17.209Z,7.40
2018-02-11T22:18:43.677Z,6.87
2018-02-11T22:21:10.105Z,7.70
2018-02-11T22:23:36.635Z,7.57
2018-02-11T22:26:03.065Z,7.63
2018-02-11T22:28:29.822Z,8.37
2018-02-11T22:30:56.197Z,8.50
2018-02-11T22:33:22.655Z,7.80
2018-02-11T22:35:49.076Z,8.53
2018-02-11T22:38:15.469Z,8.40
2018-02-11T22:40:41.884Z,8.23
2018-02-11T22:43:08.620Z,7.60
2018-02-11T22:45:34.999Z,7.43
2018-02-11T22:48:01.479Z,6.33
2018-02-11T22:50:27.911Z,7.00
2018-02-11T22:52:54.274Z,7.00
2018-02-11T22:55:20.758Z,7.00
2018-02-11T22:57:47.217Z,5.57
2018-02-11T23:00:13.651Z,8.03
2018-02-11T23:02:40.097Z,5.90
2018-02-11T23:05:06.656Z,6.87
2018-02-11T23:07:33.262Z,7.63
2018-02-11T23:10:00.053Z,7.13
2018-02-11T23:12:26.486Z,7.17
2018-02-11T23:14:52.954Z,6.27
2018-02-11T23:17:19.582Z,5.87
2018-02-11T23:19:50.821Z,7.67
2018-02-11T23:22:17.187Z,5.90
2018-02-11T23:24:43.618Z,6.47
2018-02-11T23:27:10.022Z,6.47
2018-02-11T23:29:36.435Z,4.57
2018-02-11T23:32:02.831Z,6.40
2018-02-11T23:34:29.405Z,6.33
2018-02-11T23:36:55.790Z,5.43
2018-02-11T23:39:22.183Z,5.87
2018-02-11T23:41:48.698Z,5.77
2018-02-11T23:44:15.157Z,6.07
2018-02-11T23:46:41.615Z,5.40
2018-02-11T23:49:08.066Z,5.13
2018-02-11T23:51:34.799Z,5.37
2018-02-11T23:54:01.244Z,5.37
2018-02-11T23:56:27.644Z,5.40
2018-02-11T23:58:53.974Z,6.40
